Time;durP1;ratioP1;P1;durP2;ratioP2;P2;SDS_P1;SDS_P2;PMS_P1;PMS_P2;Temp;Humidity;BMP_temperature;BMP_pressure;BME280_temperature;BME280_humidity;BME280_pressure;Samples;Min_cycle;Max_cycle;Signal;HPM_P1;HPM_P2
2021/03/25 00:02:03;;;;;;;;;;;4.50;99.90;;;;;;10300764;28;19964;-81
2021/03/25 00:07:05;;;;;;;;;;;4.40;99.90;;;;;;10310158;28;20418;-81
2021/03/25 00:12:07;;;;;;;;;;;4.40;99.90;;;;;;10301774;28;20023;-81
2021/03/25 00:17:09;;;;;;;;;;;4.40;99.90;;;;;;10294432;28;20012;-81
2021/03/25 00:22:11;;;;;;;;;;;4.40;99.90;;;;;;10304179;28;19921;-81
2021/03/25 00:27:13;;;;;;;;;;;4.30;99.90;;;;;;10315494;28;19988;-81
2021/03/25 00:32:14;;;;;;;;;;;4.30;99.90;;;;;;10306301;28;19932;-81
2021/03/25 00:37:15;;;;;;;;;;;4.30;99.90;;;;;;10315254;28;19932;-81
2021/03/25 00:42:17;;;;;;;;;;;4.30;99.90;;;;;;10310119;28;19972;-81
2021/03/25 00:47:18;;;;;;;;;;;4.20;99.90;;;;;;10316892;28;20453;-81
2021/03/25 00:52:20;;;;;;;;;;;4.10;99.90;;;;;;10297348;28;19937;-81
2021/03/25 00:57:21;;;;;;;;;;;4.10;99.90;;;;;;10273630;28;19965;-81
2021/03/25 01:02:22;;;;;;;;;;;4.00;99.90;;;;;;10305452;28;19926;-81
2021/03/25 01:07:27;;;;;;;;;;;3.90;99.90;;;;;;10298320;28;19932;-81
2021/03/25 01:12:28;;;;;;;;;;;3.80;99.90;;;;;;10314660;28;20008;-81
2021/03/25 01:17:29;;;;;;;;;;;3.90;99.90;;;;;;10274693;28;19961;-81
2021/03/25 01:22:31;;;;;;;;;;;3.80;99.90;;;;;;10284735;28;19926;-81
2021/03/25 01:27:32;;;;;;;;;;;3.70;99.90;;;;;;10325482;28;20008;-81
2021/03/25 01:32:34;;;;;;;;;;;3.70;99.90;;;;;;10299319;28;19980;-82
2021/03/25 01:37:38;;;;;;;;;;;3.70;99.90;;;;;;10314030;28;19976;-82
2021/03/25 01:42:39;;;;;;;;;;;3.70;99.90;;;;;;10303586;28;19957;-82
2021/03/25 01:47:40;;;;;;;;;;;3.70;99.90;;;;;;10314695;28;20004;-82
2021/03/25 01:53:00;;;;;;;;;;;3.60;99.90;;;;;;10306739;28;19969;-82
2021/03/25 01:58:02;;;;;;;;;;;3.50;99.90;;;;;;10322515;28;19953;-82
2021/03/25 02:03:21;;;;;;;;;;;3.40;99.90;;;;;;10320499;28;19981;-82
2021/03/25 02:08:41;;;;;;;;;;;3.40;99.90;;;;;;10337099;28;19964;-82
2021/03/25 02:13:49;;;;;;;;;;;3.30;99.90;;;;;;10340650;28;20005;-82
2021/03/25 02:18:58;;;;;;;;;;;3.30;99.90;;;;;;10321855;28;20363;-82
2021/03/25 02:24:13;;;;;;;;;;;3.30;99.90;;;;;;10306505;28;19980;-82
2021/03/25 02:29:14;;;;;;;;;;;3.20;99.90;;;;;;10359013;28;19960;-82
2021/03/25 02:34:19;;;;;;;;;;;3.10;99.90;;;;;;10308889;28;19976;-82
2021/03/25 02:39:31;;;;;;;;;;;3.10;99.90;;;;;;10320736;28;19925;-82
2021/03/25 02:44:50;;;;;;;;;;;3.10;99.90;;;;;;10321677;28;19925;-82
2021/03/25 02:49:57;;;;;;;;;;;3.00;99.90;;;;;;10300552;28;19965;-82
2021/03/25 02:55:00;;;;;;;;;;;2.90;99.90;;;;;;10297587;28;20335;-82
2021/03/25 03:00:06;;;;;;;;;;;2.90;99.90;;;;;;10330793;28;20019;-82
2021/03/25 03:05:20;;;;;;;;;;;2.90;99.90;;;;;;10372923;28;19921;-82
2021/03/25 03:10:23;;;;;;;;;;;2.80;99.90;;;;;;10341044;28;19945;-82
2021/03/25 03:15:26;;;;;;;;;;;2.80;99.90;;;;;;10337117;28;19957;-82
2021/03/25 03:20:32;;;;;;;;;;;2.80;99.90;;;;;;10338540;28;19922;-82
2021/03/25 03:25:33;;;;;;;;;;;2.70;99.90;;;;;;10315451;28;20268;-82
2021/03/25 03:30:37;;;;;;;;;;;2.70;99.90;;;;;;10323171;28;19964;-82
2021/03/25 03:35:41;;;;;;;;;;;2.70;99.90;;;;;;10322544;28;20375;-82
2021/03/25 03:40:44;;;;;;;;;;;2.60;99.90;;;;;;10335633;28;20008;-82
2021/03/25 03:45:49;;;;;;;;;;;2.50;99.90;;;;;;10347728;28;19926;-82
2021/03/25 03:50:52;;;;;;;;;;;2.50;99.90;;;;;;10332638;28;20319;-82
2021/03/25 03:56:02;;;;;;;;;;;2.40;99.90;;;;;;10333073;28;19930;-82
2021/03/25 04:01:07;;;;;;;;;;;2.30;99.90;;;;;;10334991;28;19971;-82
2021/03/25 04:06:15;;;;;;;;;;;2.20;99.90;;;;;;10295256;28;19948;-82
2021/03/25 04:11:32;;;;;;;33.53;21.50;;;2.20;99.90;;;;;;10321234;28;20502;-82
2021/03/25 04:16:36;;;;;;;33.17;17.73;;;2.40;99.90;;;;;;10289001;28;20082;-82
2021/03/25 04:21:52;;;;;;;32.42;16.83;;;2.30;99.90;;;;;;10295270;28;20057;-82
2021/03/25 04:27:12;;;;;;;27.95;16.45;;;2.30;99.90;;;;;;10326402;28;20117;-82
2021/03/25 04:32:14;;;;;;;27.45;17.05;;;2.30;99.90;;;;;;10333715;28;20474;-82
2021/03/25 04:37:16;;;;;;;27.80;16.83;;;2.30;99.90;;;;;;10328208;28;20396;-82
2021/03/25 04:42:18;;;;;;;29.02;17.00;;;2.30;99.90;;;;;;10290144;28;20122;-82
2021/03/25 04:47:39;;;;;;;28.83;17.42;;;2.20;99.90;;;;;;10305925;28;20059;-82
2021/03/25 04:52:41;;;;;;;28.52;16.35;;;2.20;99.90;;;;;;10312291;28;20146;-82
2021/03/25 04:58:00;;;;;;;23.88;14.98;;;2.20;99.90;;;;;;10325042;28;20078;-82
2021/03/25 05:03:04;;;;;;;29.50;16.33;;;2.10;99.90;;;;;;10337518;28;20092;-82
2021/03/25 05:08:16;;;;;;;30.23;17.55;;;2.10;99.90;;;;;;10290846;28;20050;-80
2021/03/25 05:13:25;;;;;;;37.72;19.23;;;2.10;99.90;;;;;;10297387;28;20070;-80
2021/03/25 05:18:31;;;;;;;26.80;16.50;;;1.80;99.90;;;;;;10305521;28;20579;-80
2021/03/25 05:23:41;;;;;;;26.55;17.20;;;1.70;99.90;;;;;;10314827;28;20098;-80
2021/03/25 05:28:53;;;;;;;30.40;17.20;;;1.90;99.90;;;;;;10288777;28;20129;-80
2021/03/25 05:33:59;;;;;;;30.70;16.77;;;2.00;99.90;;;;;;10312330;28;20136;-83
2021/03/25 05:39:03;;;;;;;30.40;17.48;;;2.10;99.90;;;;;;10313557;28;20050;-82
2021/03/25 05:44:18;;;;;;;28.52;16.90;;;2.10;99.90;;;;;;10292942;28;20130;-81
2021/03/25 05:49:29;;;;;;;29.35;16.63;;;2.20;99.90;;;;;;10306990;28;20112;-80
2021/03/25 05:54:40;;;;;;;;;;;2.40;99.90;;;;;;10307323;28;20054;-81
2021/03/25 05:59:54;;;;;;;30.45;17.08;;;2.50;99.90;;;;;;10360334;28;20355;-81
2021/03/25 06:04:56;;;;;;;30.95;16.83;;;2.60;99.90;;;;;;10346851;28;20073;-81
2021/03/25 06:09:57;;;;;;;30.15;17.52;;;2.80;99.90;;;;;;10367566;28;20069;-82
2021/03/25 06:15:14;;;;;;;29.60;18.05;;;2.90;99.90;;;;;;10350354;28;20116;-81
2021/03/25 06:20:22;;;;;;;30.75;18.75;;;3.10;99.90;;;;;;10326635;28;20057;-82
2021/03/25 06:25:50;;;;;;;27.90;17.98;;;3.20;99.90;;;;;;10366639;28;20099;-82
2021/03/25 06:31:29;;;;;;;26.30;17.38;;;3.40;99.90;;;;;;10361841;28;20853;-82
2021/03/25 06:36:53;;;;;;;27.13;16.48;;;3.40;99.90;;;;;;10361507;28;20553;-82
2021/03/25 06:42:05;;;;;;;30.67;18.20;;;3.40;99.90;;;;;;10343822;28;20093;-83
2021/03/25 06:47:38;;;;;;;30.40;18.00;;;3.60;99.90;;;;;;10360488;28;20085;-83
2021/03/25 06:52:40;;;;;;;32.70;18.20;;;3.90;99.90;;;;;;10358047;28;20046;-82
2021/03/25 06:57:46;;;;;;;23.70;16.40;;;4.20;99.90;;;;;;10354587;28;20133;-80
2021/03/25 07:02:48;;;;;;;28.75;18.80;;;4.30;99.90;;;;;;10380437;28;20499;-81
2021/03/25 07:08:01;;;;;;;27.55;17.75;;;4.20;99.90;;;;;;10361817;28;20065;-81
2021/03/25 07:13:05;;;;;;;27.58;18.02;;;4.20;99.90;;;;;;10322157;28;20709;-81
2021/03/25 07:18:45;;;;;;;28.17;17.13;;;4.30;99.90;;;;;;10313270;28;20070;-81
2021/03/25 07:23:47;;;;;;;33.40;19.15;;;4.60;99.90;;;;;;10324971;28;20073;-81
2021/03/25 07:29:07;;;;;;;28.05;18.50;;;4.90;99.90;;;;;;10330901;28;20093;-81
2021/03/25 07:34:09;;;;;;;34.58;21.58;;;5.20;99.90;;;;;;10323275;28;20105;-81
2021/03/25 07:39:11;;;;;;;35.10;22.73;;;5.50;99.90;;;;;;10323336;28;20081;-81
2021/03/25 07:44:24;;;;;;;33.45;23.30;;;5.70;99.90;;;;;;10327277;28;20128;-81
2021/03/25 07:49:29;;;;;;;42.90;24.23;;;5.80;99.90;;;;;;10334788;28;20082;-81
2021/03/25 07:54:32;;;;;;;37.70;23.05;;;6.10;99.90;;;;;;10330620;28;20133;-81
2021/03/25 07:59:38;;;;;;;38.20;22.60;;;6.70;99.90;;;;;;10329420;28;20050;-81
2021/03/25 08:04:39;;;;;;;35.35;21.08;;;7.10;99.90;;;;;;10329759;28;20116;-77
2021/03/25 08:10:01;;;;;;;33.75;21.88;;;7.70;99.90;;;;;;10312609;28;20086;-77
2021/03/25 08:15:26;;;;;;;39.17;23.63;;;8.00;99.90;;;;;;10333194;28;20163;-77
2021/03/25 08:20:41;;;;;;;35.85;22.50;;;8.50;99.90;;;;;;10369740;28;20372;-77
2021/03/25 08:25:45;;;;;;;34.90;22.25;;;8.90;99.90;;;;;;10366384;28;20046;-77
2021/03/25 08:30:59;;;;;;;45.60;22.63;;;9.20;99.90;;;;;;10352217;28;20132;-77
2021/03/25 08:36:41;;;;;;;42.45;22.13;;;9.40;99.90;;;;;;10352734;28;20104;-77
2021/03/25 08:42:04;;;;;;;34.65;22.23;;;9.60;99.90;;;;;;10360103;28;20134;-77
2021/03/25 08:47:16;;;;;;;36.42;22.02;;;9.70;99.90;;;;;;10343879;28;20058;-75
2021/03/25 08:52:21;;;;;;;39.83;22.85;;;9.80;99.90;;;;;;10369011;28;20085;-77
2021/03/25 08:57:36;;;;;;;34.85;21.15;;;9.40;99.90;;;;;;10351374;28;20049;-77
2021/03/25 09:02:52;;;;;;;35.45;22.00;;;9.40;99.90;;;;;;10368386;28;20058;-78
2021/03/25 09:07:58;;;;;;;33.30;20.85;;;9.90;99.90;;;;;;10368324;28;20084;-78
2021/03/25 09:13:00;;;;;;;30.65;19.90;;;10.50;99.90;;;;;;10369005;28;20116;-79
2021/03/25 09:18:07;;;;;;;28.88;19.92;;;10.70;99.30;;;;;;10367150;28;20168;-79
2021/03/25 09:24:02;;;;;;;33.63;19.52;;;10.80;97.40;;;;;;10363961;28;20080;-79
2021/03/25 09:29:13;;;;;;;31.40;19.42;;;10.90;96.40;;;;;;10269879;28;20492;-78
2021/03/25 09:34:14;;;;;;;32.13;18.52;;;11.50;96.00;;;;;;10361463;28;20057;-79
2021/03/25 09:39:21;;;;;;;33.80;18.67;;;11.80;94.60;;;;;;10365021;28;20042;-79
2021/03/25 09:44:34;;;;;;;27.08;16.73;;;12.30;92.20;;;;;;10325839;28;20104;-78
2021/03/25 09:50:13;;;;;;;26.15;16.25;;;12.30;91.40;;;;;;10364884;28;20495;-79
2021/03/25 09:55:17;;;;;;;32.53;15.18;;;12.50;87.30;;;;;;10364411;28;20455;-79
2021/03/25 10:00:27;;;;;;;24.80;14.17;;;12.50;86.10;;;;;;10361981;28;20145;-81
2021/03/25 10:05:30;;;;;;;21.15;14.02;;;12.60;82.10;;;;;;10358532;28;20077;-81
2021/03/25 10:10:38;;;;;;;51.10;15.93;;;13.00;78.80;;;;;;10361524;28;20057;-80
2021/03/25 10:16:03;;;;;;;19.67;13.63;;;13.20;76.50;;;;;;10363842;28;20066;-81
2021/03/25 10:21:07;;;;;;;24.10;13.65;;;13.30;74.10;;;;;;10364167;28;20081;-81
2021/03/25 10:26:11;;;;;;;22.52;13.90;;;13.60;72.40;;;;;;10363041;28;20081;-81
2021/03/25 10:31:21;;;;;;;21.80;13.55;;;14.00;71.00;;;;;;10363694;28;20738;-80
2021/03/25 10:36:32;;;;;;;21.92;12.85;;;14.20;68.20;;;;;;10363100;28;20688;-80
2021/03/25 10:41:37;;;;;;;24.98;13.38;;;14.70;65.70;;;;;;10363426;28;20085;-78
2021/03/25 10:46:39;;;;;;;18.90;12.55;;;14.70;64.80;;;;;;10363552;28;20046;-80
2021/03/25 10:51:43;;;;;;;25.17;11.65;;;14.90;63.50;;;;;;10361201;28;20050;-78
2021/03/25 10:56:45;;;;;;;21.70;13.02;;;15.00;63.60;;;;;;10362319;28;20062;-78
2021/03/25 11:01:52;;;;;;;20.73;13.20;;;15.40;61.80;;;;;;10362455;28;20498;-78
2021/03/25 11:06:55;;;;;;;21.20;13.35;;;15.40;60.30;;;;;;10363296;28;20479;-79
2021/03/25 11:12:10;;;;;;;22.65;13.15;;;15.30;59.60;;;;;;10363947;28;20054;-79
2021/03/25 11:17:35;;;;;;;25.13;13.10;;;15.40;58.50;;;;;;10346217;28;20143;-79
2021/03/25 11:22:37;;;;;;;20.92;13.80;;;15.60;58.00;;;;;;10353785;28;20066;-79
2021/03/25 11:27:39;;;;;;;23.00;13.10;;;15.40;58.00;;;;;;10369832;28;20049;-78
2021/03/25 11:32:44;;;;;;;21.38;13.73;;;15.10;58.90;;;;;;10371602;28;20108;-78
2021/03/25 11:37:46;;;;;;;26.58;13.85;;;15.30;57.30;;;;;;10372780;28;20049;-78
2021/03/25 11:43:04;;;;;;;25.55;13.40;;;15.30;57.90;;;;;;10352606;28;20073;-77
2021/03/25 11:48:15;;;;;;;27.23;14.43;;;15.50;58.10;;;;;;10368067;28;20538;-79
2021/03/25 11:53:42;;;;;;;26.67;15.48;;;16.10;56.50;;;;;;10352278;28;20439;-79
2021/03/25 11:58:52;;;;;;;27.75;17.05;;;16.00;56.20;;;;;;10368851;28;20144;-79
2021/03/25 12:03:55;;;;;;;;;;;15.70;56.40;;;;;;10352649;28;20129;-79
2021/03/25 12:09:16;;;;;;;29.35;18.48;;;15.60;56.30;;;;;;10368576;28;20008;-78
2021/03/25 12:14:19;;;;;;;;;;;15.80;56.90;;;;;;10370061;28;20054;-79
2021/03/25 12:19:21;;;;;;;35.78;22.48;;;16.30;56.30;;;;;;10350536;28;19925;-78
2021/03/25 12:24:43;;;;;;;39.50;25.30;;;16.50;56.20;;;;;;10354787;28;20038;-79
2021/03/25 12:29:44;;;;;;;64.18;28.23;;;16.70;54.70;;;;;;10349463;28;20069;-79
2021/03/25 12:34:46;;;;;;;45.53;27.83;;;16.50;55.20;;;;;;10368045;28;20053;-79
2021/03/25 12:39:49;;;;;;;44.30;27.52;;;16.60;54.80;;;;;;10367253;28;20426;-79
2021/03/25 12:44:51;;;;;;;45.65;27.27;;;16.70;55.00;;;;;;10368491;28;20108;-79
2021/03/25 12:49:52;;;;;;;49.13;29.10;;;16.80;54.70;;;;;;10366970;28;20081;-78
2021/03/25 12:54:54;;;;;;;48.92;29.63;;;16.60;54.40;;;;;;10367836;28;20058;-78
2021/03/25 12:59:59;;;;;;;43.60;29.88;;;16.70;54.70;;;;;;10368961;28;20399;-79
2021/03/25 13:05:02;;;;;;;47.65;30.15;;;16.70;54.00;;;;;;10372245;28;20046;-78
2021/03/25 13:10:05;;;;;;;50.25;31.95;;;17.00;53.80;;;;;;10365866;28;20477;-79
2021/03/25 13:15:06;;;;;;;;;;;17.20;53.10;;;;;;10367562;28;20057;-79
2021/03/25 13:20:09;;;;;;;;;;;17.40;52.10;;;;;;10366199;28;19960;-78
2021/03/25 13:25:11;;;;;;;;;;;17.70;52.00;;;;;;10366595;28;19944;-78
2021/03/25 13:30:13;;;;;;;;;;;17.80;51.20;;;;;;10366434;28;19949;-79
2021/03/25 13:35:15;;;;;;;;;;;18.20;50.40;;;;;;10367400;28;20405;-78
2021/03/25 13:40:19;;;;;;;;;;;18.10;50.60;;;;;;10364841;28;19960;-79
2021/03/25 13:45:21;;;;;;;;;;;17.90;50.70;;;;;;10366502;28;19979;-78
2021/03/25 13:50:24;;;;;;;;;;;17.80;50.90;;;;;;10365505;28;20015;-78
2021/03/25 13:55:28;;;;;;;;;;;17.60;50.70;;;;;;10347610;28;19953;-78
2021/03/25 14:00:29;;;;;;;;;;;17.50;51.00;;;;;;10364811;28;20015;-78
2021/03/25 14:11:34;;;;;;;;;;;17.10;50.60;;;;;;10324156;28;20352;-79
2021/03/25 14:16:35;;;;;;;;;;;16.80;51.40;;;;;;10307008;28;19930;-79
2021/03/25 14:21:37;;;;;;;;;;;16.70;51.50;;;;;;10323861;28;19988;-79
2021/03/25 14:26:38;;;;;;;;;;;16.50;51.80;;;;;;10342228;28;19960;-79
2021/03/25 14:31:40;;;;;;;;;;;16.40;51.80;;;;;;10364560;28;19960;-79
2021/03/25 14:36:41;;;;;;;;;;;16.40;51.80;;;;;;10364073;28;20441;-79
2021/03/25 14:41:42;;;;;;;;;;;16.20;52.10;;;;;;10364370;28;19922;-79
2021/03/25 14:46:44;;;;;;;;;;;16.20;52.20;;;;;;10364298;28;19972;-79
2021/03/25 14:51:46;;;;;;;;;;;16.30;51.70;;;;;;10348484;28;20453;-78
2021/03/25 14:56:50;;;;;;;;;;;16.10;50.80;;;;;;10355007;28;20401;-79
2021/03/25 15:01:51;;;;;;;;;;;16.00;51.70;;;;;;10372142;28;19932;-79
2021/03/25 15:06:53;;;;;;;;;;;16.20;51.30;;;;;;10372347;28;20004;-78
2021/03/25 15:11:54;;;;;;;;;;;16.20;50.70;;;;;;10371533;28;20390;-79
2021/03/25 15:16:56;;;;;;;;;;;15.90;50.70;;;;;;10370187;28;20646;-79
2021/03/25 15:21:57;;;;;;;;;;;15.80;51.20;;;;;;10370876;28;20035;-78
2021/03/25 15:26:59;;;;;;;;;;;15.70;51.50;;;;;;10371242;28;19964;-78
2021/03/25 15:32:00;;;;;;;;;;;15.80;51.70;;;;;;10371271;28;19967;-79
2021/03/25 15:37:02;;;;;;;;;;;15.50;51.80;;;;;;10370380;28;19921;-79
2021/03/25 15:42:04;;;;;;;;;;;15.40;52.30;;;;;;10370362;28;20357;-79
2021/03/25 15:47:05;;;;;;;;;;;15.20;52.80;;;;;;10353417;28;19969;-79
2021/03/25 15:52:07;;;;;;;;;;;15.00;53.50;;;;;;10352282;28;20021;-78
2021/03/25 15:57:09;;;;;;;;;;;14.90;53.90;;;;;;10385514;28;19922;-79
2021/03/25 16:02:11;;;;;;;;;;;14.70;54.60;;;;;;10369410;28;19957;-78
2021/03/25 16:07:12;;;;;;;;;;;14.60;55.30;;;;;;10369581;28;19968;-78
2021/03/25 16:12:13;;;;;;;;;;;14.50;55.90;;;;;;10370231;28;19925;-78
2021/03/25 16:17:15;;;;;;;;;;;14.40;56.20;;;;;;10368904;28;20154;-78
2021/03/25 16:22:16;;;;;;;;;;;14.30;56.60;;;;;;10351678;28;19969;-78
2021/03/25 16:27:17;;;;;;;;;;;14.20;57.10;;;;;;10368552;28;19944;-79
2021/03/25 16:32:19;;;;;;;;;;;14.20;57.40;;;;;;10368532;28;19964;-78
2021/03/25 16:37:20;;;;;;;;;;;14.10;57.60;;;;;;10368302;28;20341;-79
2021/03/25 16:42:22;;;;;;;;;;;14.00;58.20;;;;;;10368097;28;20306;-76
2021/03/25 16:47:23;;;;;;;;;;;14.00;58.50;;;;;;10367732;28;19921;-76
2021/03/25 16:52:24;;;;;;;;;;;14.10;58.70;;;;;;10367975;28;20542;-76
2021/03/25 16:57:26;;;;;;;;;;;14.00;59.20;;;;;;10350617;28;19984;-76
2021/03/25 17:02:28;;;;;;;;;;;13.80;59.80;;;;;;10367177;28;19968;-76
2021/03/25 17:07:29;;;;;;;;;;;13.70;61.50;;;;;;10367659;28;19932;-76
2021/03/25 17:12:33;;;;;;;;;;;13.60;62.50;;;;;;10367614;28;19927;-76
2021/03/25 17:17:36;;;;;;;;;;;13.60;63.20;;;;;;10365805;28;20844;-76
2021/03/25 17:22:38;;;;;;;;;;;13.50;64.10;;;;;;10367201;28;19932;-76
2021/03/25 17:27:39;;;;;;;;;;;13.40;65.10;;;;;;10366508;28;19925;-76
2021/03/25 17:32:41;;;;;;;;;;;13.10;66.20;;;;;;10366224;28;19948;-76
2021/03/25 17:37:43;;;;;;;;;;;12.70;67.40;;;;;;10366609;28;19921;-76
2021/03/25 17:42:45;;;;;;;;;;;12.40;69.00;;;;;;10365964;28;19999;-76
2021/03/25 17:47:46;;;;;;;;;;;12.40;70.60;;;;;;10365397;28;19971;-76
2021/03/25 17:52:48;;;;;;;;;;;12.40;71.70;;;;;;10365720;28;19925;-76
2021/03/25 17:57:49;;;;;;;;;;;12.30;72.00;;;;;;10365349;28;19925;-76
2021/03/25 18:02:54;;;;;;;;;;;12.30;73.30;;;;;;10365097;28;19995;-76
2021/03/25 18:07:55;;;;;;;;;;;12.30;73.90;;;;;;10365262;28;19929;-76
2021/03/25 18:12:56;;;;;;;;;;;12.30;74.80;;;;;;10365406;28;20240;-76
2021/03/25 18:17:58;;;;;;;;;;;12.10;75.70;;;;;;10347228;28;20446;-76
2021/03/25 18:23:00;;;;;;;;;;;12.00;77.60;;;;;;10365264;28;19928;-76
2021/03/25 18:28:03;;;;;;;;;;;11.80;79.30;;;;;;10364363;28;20003;-76
2021/03/25 18:33:07;;;;;;;;;;;11.70;80.90;;;;;;10373855;28;19931;-76
2021/03/25 18:38:11;;;;;;;;;;;11.60;81.80;;;;;;10385560;28;19921;-76
2021/03/25 18:43:15;;;;;;;;;;;11.60;83.30;;;;;;10403716;28;19979;-76
2021/03/25 18:48:19;;;;;;;;;;;11.50;84.50;;;;;;10404195;28;19963;-76
2021/03/25 18:53:20;;;;;;;;;;;11.40;85.80;;;;;;10364249;28;20430;-76
2021/03/25 18:58:26;;;;;;;;;;;11.50;87.20;;;;;;10363925;28;19968;-76
2021/03/25 19:03:28;;;;;;;;;;;11.50;88.00;;;;;;10369982;28;19953;-76
2021/03/25 19:08:33;;;;;;;;;;;11.50;88.60;;;;;;10364630;28;20346;-76
2021/03/25 19:13:34;;;;;;;;;;;11.50;90.00;;;;;;10363119;28;20463;-76
2021/03/25 19:18:36;;;;;;;;;;;11.50;90.10;;;;;;10366638;28;19925;-76
2021/03/25 19:23:42;;;;;;;;;;;11.40;90.60;;;;;;10327728;28;19976;-76
2021/03/25 19:28:44;;;;;;;;;;;11.10;92.20;;;;;;10357165;28;19949;-76
2021/03/25 19:33:46;;;;;;;;;;;10.80;93.70;;;;;;10363062;28;19925;-76
2021/03/25 19:38:47;;;;;;;;;;;10.70;95.50;;;;;;10365160;28;19922;-76
2021/03/25 19:43:50;;;;;;;;;;;10.60;96.40;;;;;;10360587;28;19921;-76
2021/03/25 19:48:54;;;;;;;;;;;10.50;97.70;;;;;;10339024;28;19925;-79
2021/03/25 19:53:56;;;;;;;;;;;10.40;99.80;;;;;;10360230;28;20327;-79
2021/03/25 19:58:58;;;;;;;;;;;10.40;99.90;;;;;;10329390;28;19979;-79
2021/03/25 20:03:59;;;;;;;;;;;10.40;99.90;;;;;;10337341;28;20389;-79
2021/03/25 20:09:10;;;;;;;;;;;10.40;99.90;;;;;;10359208;28;19928;-79
2021/03/25 20:14:13;;;;;;;;;;;10.50;99.90;;;;;;10347030;28;19953;-79
2021/03/25 20:19:15;;;;;;;;;;;10.50;99.90;;;;;;10377792;28;19921;-78
2021/03/25 20:24:18;;;;;;;;;;;10.40;99.90;;;;;;10369519;28;19967;-79
2021/03/25 20:29:19;;;;;;;;;;;10.10;99.90;;;;;;10368772;28;19965;-79
2021/03/25 20:34:20;;;;;;;;;;;9.90;99.90;;;;;;10351402;28;19921;-78
2021/03/25 20:39:21;;;;;;;;;;;9.70;99.90;;;;;;10389061;28;20398;-77
2021/03/25 20:44:23;;;;;;;;;;;9.50;99.90;;;;;;10409508;28;19921;-77
2021/03/25 20:49:24;;;;;;;;;;;9.20;99.90;;;;;;10408819;28;19921;-77
2021/03/25 20:54:25;;;;;;;;;;;9.00;99.90;;;;;;10409692;28;19956;-77
2021/03/25 20:59:27;;;;;;;;;;;8.80;99.90;;;;;;10407924;28;20020;-77
2021/03/25 21:04:28;;;;;;;;;;;8.70;99.90;;;;;;10366765;28;20481;-77
2021/03/25 21:09:29;;;;;;;;;;;8.50;99.90;;;;;;10402788;28;20418;-77
2021/03/25 21:14:31;;;;;;;;;;;8.30;99.90;;;;;;10409209;28;19952;-77
2021/03/25 21:19:32;;;;;;;;;;;8.20;99.90;;;;;;10409425;28;19975;-77
2021/03/25 21:24:33;;;;;;;;;;;8.00;99.90;;;;;;10406791;28;19921;-77
2021/03/25 21:29:39;;;;;;;;;;;8.00;99.90;;;;;;10350518;28;19929;-77
2021/03/25 21:34:41;;;;;;;;;;;7.90;99.90;;;;;;10368139;28;20417;-77
2021/03/25 21:39:44;;;;;;;;;;;7.80;99.90;;;;;;10367967;28;19928;-77
2021/03/25 21:44:45;;;;;;;;;;;7.70;99.90;;;;;;10367470;28;19979;-77
2021/03/25 21:49:47;;;;;;;;;;;7.70;99.90;;;;;;10367262;28;19925;-77
2021/03/25 21:54:48;;;;;;;;;;;7.60;99.90;;;;;;10366644;28;20318;-77
2021/03/25 21:59:57;;;;;;;;;;;7.50;99.90;;;;;;10366540;28;19929;-78
2021/03/25 22:04:58;;;;;;;;;;;7.50;99.90;;;;;;10361538;28;19956;-78
2021/03/25 22:10:00;;;;;;;;;;;7.40;99.90;;;;;;10361983;28;19952;-78
2021/03/25 22:15:03;;;;;;;;;;;7.30;99.90;;;;;;10366282;28;20447;-78
2021/03/25 22:20:05;;;;;;;;;;;7.10;99.90;;;;;;10365281;28;19933;-78
2021/03/25 22:25:07;;;;;;;;;;;7.10;99.90;;;;;;10365927;28;19925;-78
2021/03/25 22:30:20;;;;;;;;;;;7.10;99.90;;;;;;10365587;28;20298;-78
2021/03/25 22:35:22;;;;;;;;;;;7.00;99.90;;;;;;10364386;28;19922;-78
2021/03/25 22:40:24;;;;;;;;;;;7.00;99.90;;;;;;10364642;28;19961;-78
2021/03/25 22:45:39;;;;;;;;;;;7.10;99.90;;;;;;10364570;28;20436;-78
2021/03/25 22:50:41;;;;;;;;;;;7.00;99.90;;;;;;10359530;28;19975;-78
2021/03/25 22:55:44;;;;;;;;;;;7.10;99.90;;;;;;10364573;28;20039;-78
2021/03/25 23:00:56;;;;;;;;;;;7.20;99.90;;;;;;10364048;28;20023;-78
2021/03/25 23:05:58;;;;;;;;;;;7.30;99.90;;;;;;10348333;28;19922;-78
2021/03/25 23:11:01;;;;;;;31.25;23.42;;;7.30;99.90;;;;;;10358487;28;20520;-78
2021/03/25 23:16:03;;;;;;;34.50;23.77;;;7.80;99.90;;;;;;10371648;28;20543;-78
2021/03/25 23:21:06;;;;;;;36.33;23.50;;;7.60;99.90;;;;;;10371316;28;20077;-78
2021/03/25 23:26:08;;;;;;;35.50;21.67;;;7.40;99.90;;;;;;10355685;28;20629;-78
2021/03/25 23:31:09;;;;;;;37.72;20.42;;;7.30;99.90;;;;;;10354040;28;20448;-78
2021/03/25 23:36:37;;;;;;;29.08;19.50;;;7.30;99.90;;;;;;10371247;28;20108;-78
2021/03/25 23:41:41;;;;;;;31.10;20.02;;;7.30;99.90;;;;;;10367417;28;20046;-78
2021/03/25 23:46:42;;;;;;;31.15;19.92;;;7.30;99.90;;;;;;10371332;28;20081;-78
2021/03/25 23:51:44;;;;;;;35.10;21.15;;;7.30;99.90;;;;;;10353228;28;20050;-78
2021/03/25 23:56:46;;;;;;;36.15;21.65;;;7.00;99.90;;;;;;10370081;28;20078;-78
